createdAt,value
2018-12-14T00:01:20.487Z,0.60
2018-12-14T00:03:49.989Z,0.65
2018-12-14T00:06:19.521Z,0.65
2018-12-14T00:08:48.957Z,0.60
2018-12-14T00:11:17.821Z,0.58
2018-12-14T00:13:46.548Z,0.57
2018-12-14T00:16:16.680Z,0.56
2018-12-14T00:18:45.438Z,0.55
2018-12-14T00:21:14.682Z,0.53
2018-12-14T00:23:43.503Z,0.56
2018-12-14T00:26:12.294Z,0.58
2018-12-14T00:28:41.014Z,0.62
2018-12-14T00:31:09.728Z,0.63
2018-12-14T00:33:38.715Z,0.59
2018-12-14T00:36:07.489Z,0.62
2018-12-14T00:38:37.003Z,0.61
2018-12-14T00:41:05.857Z,0.64
2018-12-14T00:43:35.773Z,0.66
2018-12-14T00:46:05.472Z,0.66
2018-12-14T00:48:34.315Z,0.67
2018-12-14T00:51:04.063Z,0.70
2018-12-14T00:53:32.890Z,0.67
2018-12-14T00:56:01.940Z,0.67
2018-12-14T00:58:31.901Z,0.65
2018-12-14T01:01:02.314Z,0.62
2018-12-14T01:03:31.701Z,0.62
2018-12-14T01:06:02.296Z,0.62
2018-12-14T01:08:31.863Z,0.60
2018-12-14T01:11:00.744Z,0.56
2018-12-14T01:13:29.396Z,0.57
2018-12-14T01:15:58.930Z,0.61
2018-12-14T01:18:28.236Z,0.62
2018-12-14T01:20:57.216Z,0.62
2018-12-14T01:23:25.923Z,0.57
2018-12-14T01:25:54.648Z,0.53
2018-12-14T01:28:23.362Z,0.49
2018-12-14T01:30:53.646Z,0.48
2018-12-14T01:33:22.492Z,0.47
2018-12-14T01:35:51.252Z,0.50
2018-12-14T01:38:50.871Z,0.47
2018-12-14T01:41:19.868Z,0.48
2018-12-14T01:43:49.795Z,0.43
2018-12-14T01:46:18.608Z,0.43
2018-12-14T01:48:47.350Z,0.41
2018-12-14T01:51:17.901Z,0.40
2018-12-14T01:53:46.685Z,0.39
2018-12-14T01:56:15.415Z,0.42
2018-12-14T01:58:44.935Z,0.39
2018-12-14T02:01:13.728Z,0.37
2018-12-14T02:03:43.431Z,0.37
2018-12-14T02:06:12.646Z,0.35
2018-12-14T02:08:42.226Z,0.35
2018-12-14T02:11:11.014Z,0.35
2018-12-14T02:13:39.873Z,0.30
2018-12-14T02:16:09.441Z,0.31
2018-12-14T02:18:38.185Z,0.29
2018-12-14T02:21:06.897Z,0.29
2018-12-14T02:23:35.649Z,0.29
2018-12-14T02:26:05.549Z,0.32
2018-12-14T02:28:34.462Z,0.37
2018-12-14T02:31:19.086Z,0.35
2018-12-14T02:33:47.845Z,0.31
2018-12-14T02:36:16.623Z,0.32
2018-12-14T02:38:45.404Z,0.33
2018-12-14T02:41:14.206Z,0.34
2018-12-14T02:43:43.606Z,0.35
2018-12-14T02:46:12.542Z,0.33
2018-12-14T02:48:41.416Z,0.32
2018-12-14T02:51:11.154Z,0.33
2018-12-14T02:53:39.999Z,0.31
2018-12-14T02:56:08.788Z,0.32
2018-12-14T02:58:39.370Z,0.34
2018-12-14T03:01:08.251Z,0.38
2018-12-14T03:03:37.976Z,0.37
2018-12-14T03:06:07.555Z,0.34
2018-12-14T03:08:38.626Z,0.33
2018-12-14T03:11:07.406Z,0.32
2018-12-14T03:13:36.896Z,0.34
2018-12-14T03:16:05.672Z,0.33
2018-12-14T03:18:35.054Z,0.32
2018-12-14T03:21:04.266Z,0.28
2018-12-14T03:23:34.278Z,0.28
2018-12-14T03:26:05.226Z,0.30
2018-12-14T03:28:36.000Z,0.31
2018-12-14T03:31:05.852Z,0.28
2018-12-14T03:33:36.095Z,0.28
2018-12-14T03:36:05.850Z,0.27
2018-12-14T03:38:35.946Z,0.27
2018-12-14T03:41:04.921Z,0.26
2018-12-14T03:43:34.698Z,0.31
2018-12-14T03:46:04.944Z,0.33
2018-12-14T03:48:36.734Z,0.35
2018-12-14T03:51:06.226Z,0.38
2018-12-14T03:53:34.972Z,0.37
2018-12-14T03:56:03.864Z,0.39
2018-12-14T04:01:25.395Z,0.42
2018-12-14T04:03:54.088Z,0.39
2018-12-14T04:06:22.863Z,0.40
2018-12-14T04:08:53.052Z,0.40
2018-12-14T04:11:22.829Z,0.39
2018-12-14T04:13:52.475Z,0.42
2018-12-14T04:16:21.468Z,0.44
2018-12-14T04:21:39.738Z,0.47
2018-12-14T04:24:08.538Z,0.47
2018-12-14T04:26:38.298Z,0.50
2018-12-14T04:29:07.181Z,0.49
2018-12-14T04:31:36.922Z,0.53
2018-12-14T04:34:05.869Z,0.55
2018-12-14T04:36:34.893Z,0.58
2018-12-14T04:39:06.585Z,0.61
2018-12-14T04:41:35.411Z,0.63
2018-12-14T04:44:04.391Z,0.58
2018-12-14T04:46:33.942Z,0.55
2018-12-14T04:49:04.526Z,0.56
2018-12-14T04:51:34.486Z,0.54
2018-12-14T04:54:10.268Z,0.51
2018-12-14T04:56:39.558Z,0.49
2018-12-14T04:59:11.587Z,0.43
2018-12-14T05:01:41.231Z,0.39
2018-12-14T05:04:12.792Z,0.37
2018-12-14T05:06:42.524Z,0.34
2018-12-14T05:09:12.241Z,0.31
2018-12-14T05:11:41.359Z,0.35
2018-12-14T05:14:10.220Z,0.37
2018-12-14T05:16:39.352Z,0.32
2018-12-14T05:19:08.859Z,0.30
2018-12-14T05:21:37.785Z,0.23
2018-12-14T05:24:06.814Z,0.19
2018-12-14T05:26:36.330Z,0.18
2018-12-14T05:29:05.379Z,0.14
2018-12-14T05:31:35.173Z,0.11
2018-12-14T05:34:04.201Z,0.10
2018-12-14T05:36:33.204Z,0.11
2018-12-14T05:39:05.609Z,0.10
2018-12-14T05:41:34.525Z,0.09
2018-12-14T05:44:04.280Z,0.06
2018-12-14T05:46:34.487Z,0.08
2018-12-14T05:49:04.230Z,0.11
2018-12-14T05:51:34.058Z,0.10
2018-12-14T05:54:04.460Z,0.13
2018-12-14T05:56:33.427Z,0.12
2018-12-14T05:59:03.866Z,0.10
2018-12-14T06:01:33.990Z,0.08
2018-12-14T06:04:02.940Z,0.03
2018-12-14T06:06:32.630Z,-0.01
2018-12-14T06:09:02.847Z,-0.04
2018-12-14T06:11:32.641Z,-0.03
2018-12-14T06:14:01.776Z,-0.01
2018-12-14T06:16:30.958Z,-0.03
2018-12-14T06:19:02.412Z,-0.02
2018-12-14T06:21:31.709Z,0.00
2018-12-14T06:24:01.010Z,0.00
2018-12-14T06:26:30.791Z,-0.02
2018-12-14T06:29:00.353Z,-0.01
2018-12-14T06:31:30.405Z,0.01
2018-12-14T06:34:00.952Z,-0.02
2018-12-14T06:36:30.068Z,-0.07
2018-12-14T06:39:04.185Z,-0.11
2018-12-14T06:41:33.378Z,-0.11
2018-12-14T06:44:02.533Z,-0.12
2018-12-14T06:46:32.927Z,-0.11
2018-12-14T06:49:03.795Z,-0.08
2018-12-14T06:51:34.559Z,-0.09
2018-12-14T06:54:04.005Z,-0.09
2018-12-14T06:56:34.067Z,-0.08
2018-12-14T06:59:06.051Z,-0.09
2018-12-14T07:01:35.896Z,-0.06
2018-12-14T07:04:06.789Z,-0.07
2018-12-14T07:06:36.668Z,-0.06
2018-12-14T07:09:10.322Z,-0.03
2018-12-14T07:11:39.382Z,0.00
2018-12-14T07:14:08.383Z,0.03
2018-12-14T07:16:37.648Z,0.06
2018-12-14T07:19:09.236Z,0.07
2018-12-14T07:21:38.248Z,0.05
2018-12-14T07:24:08.712Z,0.03
2018-12-14T07:26:38.853Z,0.06
2018-12-14T07:29:14.829Z,0.13
2018-12-14T07:31:44.668Z,0.14
2018-12-14T07:34:13.876Z,0.17
2018-12-14T07:36:42.894Z,0.19
2018-12-14T07:39:14.282Z,0.21
2018-12-14T07:41:43.309Z,0.25
2018-12-14T07:44:18.058Z,0.24
2018-12-14T07:46:48.263Z,0.28
2018-12-14T07:49:17.231Z,0.32
2018-12-14T07:51:46.890Z,0.35
2018-12-14T07:54:16.496Z,0.39
2018-12-14T07:59:33.354Z,0.43
2018-12-14T08:02:03.277Z,0.49
2018-12-14T08:04:32.904Z,0.52
2018-12-14T08:07:02.214Z,0.53
2018-12-14T08:09:32.495Z,0.57
2018-12-14T08:12:01.536Z,0.54
2018-12-14T08:14:30.512Z,0.57
2018-12-14T08:16:59.585Z,0.57
2018-12-14T08:19:28.594Z,0.52
2018-12-14T08:21:57.737Z,0.47
2018-12-14T08:24:26.692Z,0.46
2018-12-14T08:26:56.247Z,0.42
2018-12-14T08:29:25.288Z,0.41
2018-12-14T08:31:55.171Z,0.42
2018-12-14T08:34:24.077Z,0.45
2018-12-14T08:36:52.985Z,0.46
2018-12-14T08:39:22.698Z,0.45
2018-12-14T08:41:52.368Z,0.40
2018-12-14T08:44:22.520Z,0.37
2018-12-14T08:46:52.289Z,0.38
2018-12-14T08:49:22.330Z,0.36
2018-12-14T08:51:51.937Z,0.37
2018-12-14T08:54:21.134Z,0.38
2018-12-14T08:56:50.169Z,0.38
2018-12-14T08:59:20.736Z,0.42
2018-12-14T09:01:51.198Z,0.45
2018-12-14T09:04:20.529Z,0.50
2018-12-14T09:06:49.571Z,0.56
2018-12-14T09:09:20.576Z,0.57
2018-12-14T09:11:49.859Z,0.63
2018-12-14T09:14:18.816Z,0.68
2018-12-14T09:16:47.661Z,0.80
2018-12-14T09:19:16.677Z,0.85
2018-12-14T09:21:45.570Z,0.89
2018-12-14T09:24:14.672Z,0.91
2018-12-14T09:26:44.199Z,0.93
2018-12-14T09:29:13.180Z,0.95
2018-12-14T09:31:42.981Z,0.96
2018-12-14T09:34:11.853Z,0.95
2018-12-14T09:36:40.842Z,0.94
2018-12-14T09:39:10.485Z,0.89
2018-12-14T09:41:39.440Z,0.80
2018-12-14T09:44:08.336Z,0.70
2018-12-14T09:46:37.817Z,0.66
2018-12-14T09:49:06.926Z,0.67
2018-12-14T09:51:36.876Z,0.70
2018-12-14T09:54:05.897Z,0.76
2018-12-14T09:56:35.565Z,0.79
2018-12-14T09:59:05.135Z,0.80
2018-12-14T10:01:34.837Z,0.83
2018-12-14T10:04:04.381Z,0.90
2018-12-14T10:06:33.341Z,0.92
2018-12-14T10:09:03.495Z,0.94
2018-12-14T10:11:32.425Z,0.96
2018-12-14T10:14:01.390Z,0.93
2018-12-14T10:16:30.479Z,0.84
2018-12-14T10:19:01.245Z,0.78
2018-12-14T10:21:30.351Z,0.77
2018-12-14T10:23:59.292Z,0.76
2018-12-14T10:26:29.103Z,0.77
2018-12-14T10:28:58.765Z,0.80
2018-12-14T10:31:28.543Z,0.85
2018-12-14T10:33:57.433Z,1.01
2018-12-14T10:36:32.322Z,1.18
2018-12-14T10:39:04.361Z,1.32
2018-12-14T10:41:33.281Z,1.49
2018-12-14T10:44:07.375Z,1.58
2018-12-14T10:46:34.815Z,1.65
2018-12-14T10:49:04.286Z,1.70
2018-12-14T10:51:38.779Z,1.76
2018-12-14T10:54:08.745Z,1.74
2018-12-14T10:56:37.493Z,1.69
2018-12-14T10:59:07.049Z,1.71
2018-12-14T11:01:41.790Z,1.69
2018-12-14T11:04:10.624Z,1.65
2018-12-14T11:06:39.441Z,1.58
2018-12-14T11:09:09.223Z,1.57
2018-12-14T11:11:37.983Z,1.49
2018-12-14T11:14:06.945Z,1.49
2018-12-14T11:16:36.510Z,1.41
2018-12-14T11:19:05.352Z,1.43
2018-12-14T11:21:34.946Z,1.38
2018-12-14T11:24:04.288Z,1.39
2018-12-14T11:26:33.805Z,1.34
2018-12-14T11:29:02.666Z,1.40
2018-12-14T11:31:32.154Z,1.40
2018-12-14T11:34:01.655Z,1.34
2018-12-14T11:36:30.408Z,1.31
2018-12-14T11:38:59.827Z,1.31
2018-12-14T11:41:28.726Z,1.33
2018-12-14T11:43:57.440Z,1.38
2018-12-14T11:46:27.132Z,1.46
2018-12-14T11:48:55.843Z,1.50
2018-12-14T11:51:27.145Z,1.52
2018-12-14T11:53:56.025Z,1.51
2018-12-14T11:56:24.942Z,1.43
2018-12-14T11:58:54.452Z,1.45
2018-12-14T12:01:24.340Z,1.40
2018-12-14T12:03:54.075Z,1.37
2018-12-14T12:06:23.461Z,1.34
2018-12-14T12:08:53.710Z,1.29
2018-12-14T12:11:22.983Z,1.21
2018-12-14T12:13:52.557Z,1.14
2018-12-14T12:16:23.193Z,1.11
2018-12-14T12:18:52.770Z,1.11
2018-12-14T12:21:22.183Z,1.09
2018-12-14T12:23:55.207Z,1.12
2018-12-14T12:26:24.454Z,1.09
2018-12-14T12:28:53.803Z,1.08
2018-12-14T12:31:25.022Z,1.06
2018-12-14T12:33:54.334Z,1.09
2018-12-14T12:36:26.478Z,1.13
2018-12-14T12:38:56.322Z,1.15
2018-12-14T12:41:25.461Z,1.18
2018-12-14T12:43:54.670Z,1.22
2018-12-14T12:46:24.994Z,1.24
2018-12-14T12:48:54.687Z,1.19
2018-12-14T12:51:25.038Z,1.13
2018-12-14T12:53:54.348Z,1.11
2018-12-14T12:56:32.073Z,1.10
2018-12-14T12:59:02.121Z,1.05
2018-12-14T13:01:31.999Z,0.99
2018-12-14T13:04:01.296Z,0.98
2018-12-14T13:06:31.220Z,0.91
2018-12-14T13:09:00.909Z,0.89
2018-12-14T13:11:31.018Z,0.91
2018-12-14T13:14:00.324Z,0.91
2018-12-14T13:16:29.594Z,0.94
2018-12-14T13:18:59.047Z,0.98
2018-12-14T13:21:28.475Z,0.98
2018-12-14T13:23:57.511Z,0.96
2018-12-14T13:26:27.226Z,0.95
2018-12-14T13:28:56.224Z,0.91
2018-12-14T13:31:25.961Z,0.91
2018-12-14T13:33:55.261Z,0.79
2018-12-14T13:36:25.160Z,0.79
2018-12-14T13:38:54.940Z,0.75
2018-12-14T13:41:24.134Z,0.70
2018-12-14T13:43:54.464Z,0.61
2018-12-14T13:46:25.830Z,0.45
2018-12-14T13:49:02.548Z,0.32
2018-12-14T13:51:28.998Z,0.26
2018-12-14T13:53:58.315Z,0.17
2018-12-14T13:56:32.581Z,0.13
2018-12-14T13:59:03.398Z,0.12
2018-12-14T14:01:35.317Z,0.02
2018-12-14T14:04:06.200Z,0.06
2018-12-14T14:06:36.562Z,0.01
2018-12-14T14:09:21.199Z,0.00
2018-12-14T14:11:51.060Z,-0.02
2018-12-14T14:14:20.666Z,-0.03
2018-12-14T14:16:50.986Z,-0.03
2018-12-14T14:19:21.016Z,-0.02
2018-12-14T14:21:55.940Z,0.00
2018-12-14T14:24:25.368Z,-0.05
2018-12-14T14:26:56.001Z,-0.10
2018-12-14T14:29:25.155Z,-0.11
2018-12-14T14:31:54.941Z,-0.14
2018-12-14T14:34:24.313Z,-0.17
2018-12-14T14:39:42.065Z,-0.18
2018-12-14T14:42:11.496Z,-0.17
2018-12-14T14:44:43.102Z,-0.20
2018-12-14T14:47:12.400Z,-0.18
2018-12-14T14:49:42.853Z,-0.19
2018-12-14T14:52:16.893Z,-0.19
2018-12-14T14:54:47.449Z,-0.19
2018-12-14T14:57:16.561Z,-0.18
2018-12-14T14:59:46.218Z,-0.13
2018-12-14T15:02:17.404Z,-0.11
2018-12-14T15:04:47.467Z,-0.11
2018-12-14T15:07:16.869Z,-0.17
2018-12-14T15:09:46.684Z,-0.18
2018-12-14T15:12:16.333Z,-0.19
2018-12-14T15:14:46.453Z,-0.22
2018-12-14T15:17:20.769Z,-0.20
2018-12-14T15:19:49.785Z,-0.24
2018-12-14T15:22:19.116Z,-0.30
2018-12-14T15:24:48.705Z,-0.29
2018-12-14T15:27:19.639Z,-0.26
2018-12-14T15:29:48.806Z,-0.31
2018-12-14T15:32:19.442Z,-0.33
2018-12-14T15:34:48.705Z,-0.34
2018-12-14T15:37:19.224Z,-0.37
2018-12-14T15:39:48.511Z,-0.41
2018-12-14T15:42:18.159Z,-0.39
2018-12-14T15:44:48.470Z,-0.39
2018-12-14T15:47:17.771Z,-0.32
2018-12-14T15:49:47.250Z,-0.26
2018-12-14T15:52:17.187Z,-0.25
2018-12-14T15:54:46.348Z,-0.26
2018-12-14T15:57:15.486Z,-0.24
2018-12-14T15:59:45.623Z,-0.20
2018-12-14T16:02:16.652Z,-0.17
2018-12-14T16:04:46.288Z,-0.17
2018-12-14T16:07:15.866Z,-0.19
2018-12-14T16:09:45.919Z,-0.23
2018-12-14T16:12:15.189Z,-0.25
2018-12-14T16:14:44.165Z,-0.23
2018-12-14T16:17:13.450Z,-0.22
2018-12-14T16:19:47.415Z,-0.19
2018-12-14T16:22:16.401Z,-0.11
2018-12-14T16:24:45.441Z,-0.16
2018-12-14T16:27:16.446Z,-0.23
2018-12-14T16:29:45.630Z,-0.26
2018-12-14T16:32:15.470Z,-0.27
2018-12-14T16:34:44.606Z,-0.30
2018-12-14T16:37:14.677Z,-0.35
2018-12-14T16:39:45.092Z,-0.29
2018-12-14T16:42:14.093Z,-0.23
2018-12-14T16:44:43.641Z,-0.14
2018-12-14T16:47:12.726Z,-0.10
2018-12-14T16:49:41.742Z,-0.09
2018-12-14T16:52:14.447Z,-0.14
2018-12-14T16:54:43.385Z,-0.24
2018-12-14T16:57:13.015Z,-0.28
2018-12-14T16:59:42.621Z,-0.37
2018-12-14T17:02:14.391Z,-0.37
2018-12-14T17:04:44.515Z,-0.34
2018-12-14T17:07:19.754Z,-0.30
2018-12-14T17:09:49.325Z,-0.29
2018-12-14T17:12:18.586Z,-0.37
2018-12-14T17:14:47.653Z,-0.37
2018-12-14T17:17:16.715Z,-0.39
2018-12-14T17:19:45.756Z,-0.40
2018-12-14T17:22:19.436Z,-0.40
2018-12-14T17:24:48.532Z,-0.43
2018-12-14T17:27:18.458Z,-0.41
2018-12-14T17:29:47.682Z,-0.41
2018-12-14T17:32:17.576Z,-0.45
2018-12-14T17:34:46.635Z,-0.47
2018-12-14T17:37:17.915Z,-0.44
2018-12-14T17:39:46.980Z,-0.36
2018-12-14T17:42:16.094Z,-0.28
2018-12-14T17:44:46.137Z,-0.23
2018-12-14T17:47:16.271Z,-0.26
2018-12-14T17:49:45.131Z,-0.23
2018-12-14T17:52:14.720Z,-0.24
2018-12-14T17:54:43.714Z,-0.25
2018-12-14T17:57:13.628Z,-0.28
2018-12-14T17:59:44.525Z,-0.29
2018-12-14T18:02:19.371Z,-0.29
2018-12-14T18:04:49.658Z,-0.31
2018-12-14T18:07:18.652Z,-0.25
2018-12-14T18:09:48.211Z,-0.23
2018-12-14T18:12:17.285Z,-0.19
2018-12-14T18:14:46.322Z,-0.17
2018-12-14T18:17:15.726Z,-0.16
2018-12-14T18:19:44.737Z,-0.22
2018-12-14T18:22:14.725Z,-0.26
2018-12-14T18:24:43.815Z,-0.33
2018-12-14T18:27:13.715Z,-0.40
2018-12-14T18:29:43.399Z,-0.45
2018-12-14T18:32:15.286Z,-0.40
2018-12-14T18:34:45.297Z,-0.35
2018-12-14T18:37:15.585Z,-0.37
2018-12-14T18:39:45.669Z,-0.40
2018-12-14T18:42:16.734Z,-0.37
2018-12-14T18:44:47.802Z,-0.35
2018-12-14T18:47:17.209Z,-0.33
2018-12-14T18:49:46.461Z,-0.28
2018-12-14T18:52:16.449Z,-0.17
2018-12-14T18:54:45.318Z,-0.11
2018-12-14T18:57:14.496Z,-0.10
2018-12-14T18:59:44.041Z,-0.09
2018-12-14T19:02:14.055Z,-0.12
2018-12-14T19:04:43.636Z,-0.14
2018-12-14T19:07:12.892Z,-0.12
2018-12-14T19:09:42.498Z,-0.08
2018-12-14T19:12:11.470Z,-0.04
2018-12-14T19:14:40.327Z,-0.03
2018-12-14T19:17:09.219Z,-0.04
2018-12-14T19:19:38.289Z,-0.08
2018-12-14T19:22:07.618Z,-0.07
2018-12-14T19:24:37.655Z,-0.04
2018-12-14T19:27:07.826Z,-0.07
2018-12-14T19:29:36.828Z,-0.05
2018-12-14T19:32:06.740Z,-0.10
2018-12-14T19:34:36.518Z,-0.14
2018-12-14T19:37:06.099Z,-0.20
2018-12-14T19:39:36.368Z,-0.23
2018-12-14T19:42:06.028Z,-0.25
2018-12-14T19:44:36.374Z,-0.24
2018-12-14T19:47:06.884Z,-0.20
2018-12-14T19:49:36.358Z,-0.17
2018-12-14T19:52:06.449Z,-0.18
2018-12-14T19:54:36.027Z,-0.18
2018-12-14T19:57:06.434Z,-0.17
2018-12-14T19:59:36.273Z,-0.17
2018-12-14T20:02:06.352Z,-0.13
2018-12-14T20:04:36.287Z,-0.10
2018-12-14T20:07:05.603Z,-0.06
2018-12-14T20:09:37.164Z,-0.09
2018-12-14T20:12:06.200Z,-0.07
2018-12-14T20:14:35.360Z,-0.02
2018-12-14T20:17:04.428Z,-0.04
2018-12-14T20:19:33.613Z,-0.02
2018-12-14T20:22:02.665Z,0.03
2018-12-14T20:24:31.851Z,0.05
2018-12-14T20:27:01.466Z,0.09
2018-12-14T20:29:30.407Z,0.12
2018-12-14T20:32:02.180Z,0.11
2018-12-14T20:34:31.324Z,0.16
2018-12-14T20:37:00.376Z,0.23
2018-12-14T20:39:29.912Z,0.26
2018-12-14T20:41:59.093Z,0.27
2018-12-14T20:44:28.248Z,0.24
2018-12-14T20:46:57.949Z,0.25
2018-12-14T20:49:27.457Z,0.23
2018-12-14T20:51:57.457Z,0.16
2018-12-14T20:54:26.471Z,0.06
2018-12-14T20:56:56.058Z,-0.01
2018-12-14T20:59:26.230Z,-0.05
2018-12-14T21:01:56.241Z,-0.06
2018-12-14T21:04:25.976Z,-0.12
2018-12-14T21:06:56.295Z,-0.19
2018-12-14T21:12:15.424Z,-0.29
2018-12-14T21:14:50.998Z,-0.33
2018-12-14T21:17:19.632Z,-0.28
2018-12-14T21:19:49.255Z,-0.22
2018-12-14T21:22:19.600Z,-0.16
2018-12-14T21:24:48.628Z,-0.10
2018-12-14T21:27:20.576Z,-0.05
2018-12-14T21:29:50.191Z,-0.01
2018-12-14T21:32:20.000Z,-0.01
2018-12-14T21:34:49.171Z,-0.03
2018-12-14T21:37:19.206Z,-0.01
2018-12-14T21:39:48.219Z,0.02
2018-12-14T21:42:17.423Z,0.04
2018-12-14T21:44:47.324Z,0.03
2018-12-14T21:47:16.440Z,0.00
2018-12-14T21:49:45.427Z,0.02
2018-12-14T21:52:14.940Z,0.00
2018-12-14T21:54:44.407Z,0.04
2018-12-14T21:57:13.399Z,0.03
2018-12-14T21:59:43.026Z,-0.01
2018-12-14T22:02:12.571Z,0.01
2018-12-14T22:04:42.159Z,0.02
2018-12-14T22:07:11.052Z,0.10
2018-12-14T22:09:40.900Z,0.09
2018-12-14T22:12:09.930Z,0.12
2018-12-14T22:14:39.121Z,0.12
2018-12-14T22:17:08.383Z,0.14
2018-12-14T22:19:37.572Z,0.14
2018-12-14T22:22:06.829Z,0.13
2018-12-14T22:24:37.677Z,0.10
2018-12-14T22:27:07.814Z,0.02
2018-12-14T22:29:37.004Z,-0.03
2018-12-14T22:32:07.056Z,-0.08
2018-12-14T22:34:36.232Z,-0.08
2018-12-14T22:37:05.516Z,-0.04
2018-12-14T22:39:35.520Z,-0.11
2018-12-14T22:42:06.030Z,-0.12
2018-12-14T22:44:35.508Z,-0.12
2018-12-14T22:47:06.633Z,-0.13
2018-12-14T22:49:37.360Z,-0.15
2018-12-14T22:52:07.179Z,-0.14
2018-12-14T22:54:36.362Z,-0.09
2018-12-14T22:57:07.216Z,-0.01
2018-12-14T22:59:36.924Z,0.06
2018-12-14T23:02:06.731Z,0.12
2018-12-14T23:04:36.538Z,0.17
2018-12-14T23:07:05.644Z,0.22
2018-12-14T23:09:35.742Z,0.25
2018-12-14T23:12:05.119Z,0.27
2018-12-14T23:14:34.359Z,0.24
2018-12-14T23:17:05.206Z,0.23
2018-12-14T23:19:37.729Z,0.19
2018-12-14T23:22:08.491Z,0.19
2018-12-14T23:24:39.134Z,0.16
2018-12-14T23:27:08.806Z,0.15
2018-12-14T23:29:37.786Z,0.12
2018-12-14T23:32:07.854Z,0.13
2018-12-14T23:34:37.093Z,0.05
2018-12-14T23:37:06.542Z,0.02
2018-12-14T23:39:37.915Z,0.01
2018-12-14T23:42:10.102Z,0.05
2018-12-14T23:44:40.696Z,0.09
2018-12-14T23:47:10.325Z,0.06
2018-12-14T23:49:39.618Z,0.06
2018-12-14T23:52:09.293Z,0.01
2018-12-14T23:54:38.700Z,0.00
2018-12-14T23:57:12.216Z,-0.06
2018-12-14T23:59:41.281Z,-0.09
